createdAt,value
2023-02-06T00:00:02.112Z,0
2023-02-06T00:05:02.144Z,0
2023-02-06T00:10:02.299Z,0
2023-02-06T00:15:02.194Z,0
2023-02-06T00:20:02.102Z,0
2023-02-06T00:25:02.278Z,0
2023-02-06T00:30:02.164Z,0
2023-02-06T00:35:02.154Z,0
2023-02-06T00:40:02.193Z,0
2023-02-06T00:45:02.313Z,0
2023-02-06T00:50:02.204Z,0
2023-02-06T00:55:02.254Z,0
2023-02-06T01:00:02.207Z,0
2023-02-06T01:05:02.443Z,0
2023-02-06T01:10:02.210Z,0
2023-02-06T01:15:02.198Z,0
2023-02-06T01:20:02.182Z,0
2023-02-06T01:25:02.398Z,0
2023-02-06T01:30:02.238Z,0
2023-02-06T01:35:02.280Z,0
2023-02-06T01:40:02.240Z,0
2023-02-06T01:45:02.385Z,0
2023-02-06T01:50:02.182Z,0
2023-02-06T01:55:02.261Z,0
2023-02-06T02:00:02.231Z,0
2023-02-06T02:05:02.439Z,0
2023-02-06T02:10:02.251Z,0
2023-02-06T02:15:02.224Z,0
2023-02-06T02:20:02.290Z,0
2023-02-06T02:25:02.397Z,0
2023-02-06T02:30:02.282Z,0
2023-02-06T02:35:02.232Z,0
2023-02-06T02:40:02.269Z,0
2023-02-06T02:45:02.384Z,0
2023-02-06T02:50:02.446Z,0
2023-02-06T02:55:02.271Z,0
2023-02-06T03:00:02.366Z,0
2023-02-06T03:05:02.367Z,0
2023-02-06T03:10:02.455Z,0
2023-02-06T03:15:02.329Z,0
2023-02-06T03:20:02.318Z,0
2023-02-06T03:25:02.382Z,0
2023-02-06T03:30:02.493Z,0
2023-02-06T03:35:02.305Z,0
2023-02-06T03:40:02.369Z,0
2023-02-06T03:45:02.365Z,0
2023-02-06T03:50:02.481Z,0
2023-02-06T03:55:02.311Z,0
2023-02-06T04:00:02.407Z,0
2023-02-06T04:05:02.413Z,0
2023-02-06T04:10:02.525Z,0
2023-02-06T04:15:02.397Z,0
2023-02-06T04:20:02.349Z,0
2023-02-06T04:25:02.459Z,0
2023-02-06T04:30:02.580Z,0
2023-02-06T04:35:02.340Z,0
2023-02-06T04:40:02.368Z,0
2023-02-06T04:45:02.428Z,0
2023-02-06T04:50:02.361Z,0
2023-02-06T04:55:02.421Z,0
2023-02-06T05:00:02.445Z,0
2023-02-06T05:05:02.511Z,0
2023-02-06T05:10:02.666Z,0
2023-02-06T05:15:02.432Z,0
2023-02-06T05:20:02.353Z,0
2023-02-06T05:25:02.479Z,0
2023-02-06T05:30:02.559Z,0
2023-02-06T05:35:02.432Z,0
2023-02-06T05:40:02.373Z,0
2023-02-06T05:45:02.416Z,0
2023-02-06T05:50:02.581Z,0
2023-02-06T05:55:02.440Z,0
2023-02-06T06:00:02.452Z,0
2023-02-06T06:05:02.619Z,0
2023-02-06T06:10:02.622Z,0
2023-02-06T06:15:02.439Z,0
2023-02-06T06:20:02.567Z,0
2023-02-06T06:25:02.719Z,0
2023-02-06T06:30:02.595Z,0
2023-02-06T06:35:02.435Z,0
2023-02-06T06:40:02.577Z,0
2023-02-06T06:45:02.525Z,0
2023-02-06T06:50:02.548Z,0
2023-02-06T06:55:02.635Z,0
2023-02-06T07:00:02.563Z,0
2023-02-06T07:05:02.478Z,0
2023-02-06T07:10:02.547Z,0
2023-02-06T07:15:02.657Z,0
2023-02-06T07:20:02.503Z,0
2023-02-06T07:25:02.599Z,0.12154497354497355
2023-02-06T07:30:03.580Z,0.3370793650793651
2023-02-06T07:35:02.664Z,0.2820952380952381
2023-02-06T07:40:02.508Z,0.32395767195767194
2023-02-06T07:45:02.581Z,0.36475132275132277
2023-02-06T07:50:02.542Z,0.6777883597883598
2023-02-06T07:55:02.771Z,0.6098201058201058
2023-02-06T08:00:02.578Z,0.954888888888889
2023-02-06T08:05:02.574Z,1.07810582010582
2023-02-06T08:10:02.575Z,1.0272804232804233
2023-02-06T08:15:02.681Z,1.5242433862433862
2023-02-06T08:20:02.562Z,1.505978835978836
2023-02-06T08:25:02.571Z,2.342338624338624
2023-02-06T08:30:02.582Z,2.3985291005291005
2023-02-06T08:35:02.700Z,2.338359788359788
2023-02-06T08:40:02.601Z,3.58842328042328
2023-02-06T08:45:02.585Z,4.267132275132275
2023-02-06T08:50:03.623Z,5.2949417989417995
2023-02-06T08:55:02.735Z,5.0774920634920635
2023-02-06T09:00:02.602Z,3.8334920634920633
2023-02-06T09:05:02.605Z,4.413005291005291
2023-02-06T09:10:02.639Z,5.544412698412699
2023-02-06T09:15:02.712Z,6.302645502645503
2023-02-06T09:20:02.589Z,7.57725925925926
2023-02-06T09:25:02.618Z,5.755068783068784
2023-02-06T09:30:02.674Z,6.114941798941798
2023-02-06T09:35:02.665Z,7.285925925925926
2023-02-06T09:40:02.806Z,7.134296296296297
2023-02-06T09:45:02.658Z,8.161248677248679
2023-02-06T09:50:02.741Z,7.539904761904761
2023-02-06T09:55:02.623Z,8.58564021164021
2023-02-06T10:00:02.883Z,6.654846560846561
2023-02-06T10:05:02.701Z,7.5173227513227525
2023-02-06T10:10:02.667Z,9.868423280423281
2023-02-06T10:15:02.655Z,9.6254708994709
2023-02-06T10:20:02.734Z,9.66774603174603
2023-02-06T10:25:02.657Z,9.825904761904763
2023-02-06T10:30:02.695Z,10.231735449735451
2023-02-06T10:35:02.680Z,13.548825396825398
2023-02-06T10:40:02.777Z,11.679767195767196
2023-02-06T10:45:17.352Z,8.947037037037036
2023-02-06T10:50:02.715Z,7.515883597883597
2023-02-06T10:55:02.691Z,7.6559576719576725
2023-02-06T11:00:02.832Z,8.756412698412698
2023-02-06T11:05:02.895Z,7.453238095238096
2023-02-06T11:10:02.790Z,7.492402116402117
2023-02-06T11:15:02.747Z,8.065047619047618
2023-02-06T11:20:02.754Z,8.27642328042328
2023-02-06T11:25:02.866Z,9.079925925925926
2023-02-06T11:30:02.826Z,9.750476190476192
2023-02-06T11:35:02.708Z,8.602021164021163
2023-02-06T11:40:02.760Z,9.615280423280423
2023-02-06T11:45:02.805Z,9.552666666666667
2023-02-06T11:50:02.999Z,9.279026455026456
2023-02-06T11:55:02.772Z,8.828455026455027
2023-02-06T12:00:02.870Z,9.10674074074074
2023-02-06T12:15:07.365Z,8.653058201058201
2023-02-06T12:20:00.643Z,9.706857142857144
2023-02-06T12:25:00.631Z,11.686031746031746
2023-02-06T12:30:00.558Z,12.816994708994711
2023-02-06T12:35:00.465Z,12.454878306878308
2023-02-06T12:40:00.560Z,12.141873015873015
2023-02-06T12:45:00.525Z,13.839132275132277
2023-02-06T12:50:00.519Z,12.236031746031745
2023-02-06T12:55:00.491Z,11.290878306878307
2023-02-06T13:00:00.595Z,12.443153439153438
2023-02-06T13:05:00.532Z,9.994105820105819
2023-02-06T13:10:00.567Z,7.339269841269842
2023-02-06T13:15:00.619Z,7.529936507936509
2023-02-06T13:20:00.650Z,8.530359788359789
2023-02-06T13:25:00.705Z,7.243164021164021
2023-02-06T13:30:00.749Z,5.343925925925927
2023-02-06T13:35:00.520Z,5.483037037037038
2023-02-06T13:40:00.630Z,4.894021164021164
2023-02-06T13:45:00.875Z,5.769111111111112
2023-02-06T13:50:00.575Z,6.257058201058201
2023-02-06T13:55:00.576Z,5.104465608465609
2023-02-06T14:00:00.604Z,5.7921587301587305
2023-02-06T14:05:00.565Z,4.970814814814815
2023-02-06T14:10:00.596Z,4.473185185185185
2023-02-06T14:15:00.563Z,4.4855873015873025
2023-02-06T14:20:00.584Z,3.577005291005291
2023-02-06T14:25:00.580Z,3.745015873015873
2023-02-06T14:30:00.606Z,4.1217883597883604
2023-02-06T14:35:00.574Z,3.0845079365079364
2023-02-06T14:40:05.201Z,2.8223386243386246
2023-02-06T14:45:00.677Z,3.0039365079365083
2023-02-06T14:50:00.681Z,2.2688783068783067
2023-02-06T14:55:00.716Z,1.849936507936508
2023-02-06T15:00:00.896Z,1.4954497354497354
2023-02-06T15:05:00.814Z,1.5375132275132275
2023-02-06T15:10:00.718Z,1.1652169312169312
2023-02-06T15:15:00.904Z,0.8763809523809525
2023-02-06T15:20:00.599Z,0.6303492063492063
2023-02-06T15:25:00.615Z,0.34917460317460314
2023-02-06T15:30:00.706Z,0.31063492063492065
2023-02-06T15:35:00.631Z,0.31125925925925924
2023-02-06T15:45:00.602Z,0
2023-02-06T15:50:00.759Z,0
2023-02-06T15:55:00.868Z,0
2023-02-06T16:00:00.709Z,0
2023-02-06T16:05:00.750Z,0
2023-02-06T16:10:00.631Z,0
2023-02-06T16:15:00.676Z,0
2023-02-06T16:20:00.691Z,0
2023-02-06T16:25:00.840Z,0
2023-02-06T16:30:00.734Z,0
2023-02-06T16:35:00.671Z,0
2023-02-06T16:40:09.408Z,0
2023-02-06T16:45:00.702Z,0
2023-02-06T16:50:00.792Z,0
2023-02-06T16:55:00.700Z,0
2023-02-06T17:00:00.840Z,0
2023-02-06T17:05:00.778Z,0
2023-02-06T17:10:00.808Z,0
2023-02-06T17:15:00.810Z,0
2023-02-06T17:20:00.813Z,0
2023-02-06T17:25:00.900Z,0
2023-02-06T17:30:00.899Z,0
2023-02-06T17:35:00.897Z,0
2023-02-06T17:40:01.004Z,0
2023-02-06T17:45:00.725Z,0
2023-02-06T17:50:00.726Z,0
2023-02-06T17:55:00.810Z,0
2023-02-06T18:00:00.787Z,0
2023-02-06T18:05:00.814Z,0
2023-02-06T18:10:00.794Z,0
2023-02-06T18:15:00.781Z,0
2023-02-06T18:20:00.806Z,0
2023-02-06T18:25:00.818Z,0
2023-02-06T18:30:00.853Z,0
2023-02-06T18:35:00.811Z,0
2023-02-06T18:40:00.823Z,0
2023-02-06T18:45:02.614Z,0
2023-02-06T18:50:00.765Z,0
2023-02-06T18:55:00.796Z,0
2023-02-06T19:00:00.882Z,0
2023-02-06T19:05:00.923Z,0
2023-02-06T19:10:00.801Z,0
2023-02-06T19:15:00.843Z,0
2023-02-06T19:20:00.854Z,0
2023-02-06T19:25:00.968Z,0
2023-02-06T19:30:00.984Z,0
2023-02-06T19:35:00.978Z,0
2023-02-06T19:40:01.019Z,0
2023-02-06T19:45:00.987Z,0
2023-02-06T19:50:00.986Z,0
2023-02-06T19:55:00.889Z,0
2023-02-06T20:00:00.884Z,0
2023-02-06T20:05:02.523Z,0
2023-02-06T20:10:00.875Z,0
2023-02-06T20:15:00.926Z,0
2023-02-06T20:20:00.917Z,0
2023-02-06T20:25:00.895Z,0
2023-02-06T20:30:00.987Z,0
2023-02-06T20:35:00.981Z,0
2023-02-06T20:40:00.883Z,0
2023-02-06T20:45:00.928Z,0
2023-02-06T20:50:00.921Z,0
2023-02-06T20:55:00.926Z,0
2023-02-06T21:00:00.929Z,0
2023-02-06T21:05:00.920Z,0
2023-02-06T21:10:00.944Z,0
2023-02-06T21:15:00.934Z,0
2023-02-06T21:20:01.231Z,0
2023-02-06T21:25:01.087Z,0
2023-02-06T21:30:01.101Z,0
2023-02-06T21:35:01.105Z,0
2023-02-06T21:40:01.096Z,0
2023-02-06T21:45:01.219Z,0
2023-02-06T21:50:00.912Z,0
2023-02-06T21:55:00.928Z,0
2023-02-06T22:00:01.042Z,0
2023-02-06T22:05:00.976Z,0
2023-02-06T22:10:00.940Z,0
2023-02-06T22:15:00.963Z,0
2023-02-06T22:20:00.938Z,0
2023-02-06T22:25:00.987Z,0
2023-02-06T22:30:00.978Z,0
2023-02-06T22:35:01.022Z,0
2023-02-06T22:40:00.920Z,0
2023-02-06T22:45:01.025Z,0
2023-02-06T22:50:01.054Z,0
2023-02-06T22:55:01.149Z,0
2023-02-06T23:00:01.074Z,0
2023-02-06T23:05:01.016Z,0
2023-02-06T23:10:01.048Z,0
2023-02-06T23:15:01.126Z,0
2023-02-06T23:20:01.182Z,0
2023-02-06T23:25:01.271Z,0
2023-02-06T23:30:01.241Z,0
2023-02-06T23:35:01.044Z,0
2023-02-06T23:40:01.000Z,0
2023-02-06T23:45:01.087Z,0
2023-02-06T23:50:01.082Z,0
2023-02-06T23:55:01.018Z,0
